Time;durP1;ratioP1;P1;durP2;ratioP2;P2;SDS_P1;SDS_P2;PMS_P1;PMS_P2;Temp;Humidity;BMP_temperature;BMP_pressure;BME280_temperature;BME280_humidity;BME280_pressure;Samples;Min_cycle;Max_cycle;Signal;HPM_P1;HPM_P2
2022/07/21 00:01:45;;;;;;;18.17;12.63;;;20.70;99.90;;;;;;4988213;28;20042;-90
2022/07/21 00:04:11;;;;;;;19.25;11.95;;;20.60;99.90;;;;;;4985791;28;20035;-91
2022/07/21 00:06:36;;;;;;;15.30;12.32;;;20.60;99.90;;;;;;4973121;28;20045;-91
2022/07/21 00:09:05;;;;;;;17.15;12.20;;;20.60;99.90;;;;;;4988884;28;20046;-90
2022/07/21 00:11:30;;;;;;;16.52;12.80;;;20.50;99.90;;;;;;4990071;28;20042;-90
2022/07/21 00:13:58;;;;;;;16.58;12.15;;;20.50;99.90;;;;;;4970782;28;20078;-91
2022/07/21 00:16:24;;;;;;;17.85;13.13;;;20.50;99.90;;;;;;4979432;28;20038;-89
2022/07/21 00:18:50;;;;;;;18.35;12.55;;;20.40;99.90;;;;;;4989551;28;20121;-90
2022/07/21 00:21:23;;;;;;;16.42;13.45;;;20.40;99.90;;;;;;4981249;28;20096;-90
2022/07/21 00:23:48;;;;;;;18.95;13.52;;;20.40;99.90;;;;;;4988109;28;20034;-90
2022/07/21 00:26:15;;;;;;;19.83;13.80;;;20.40;99.90;;;;;;4989536;28;20208;-90
2022/07/21 00:28:40;;;;;;;17.52;13.27;;;20.40;99.90;;;;;;4991113;28;20507;-90
2022/07/21 00:31:06;;;;;;;18.23;13.32;;;20.30;99.90;;;;;;4988796;28;20038;-91
2022/07/21 00:33:32;;;;;;;18.35;14.07;;;20.40;99.90;;;;;;4979384;28;20046;-92
2022/07/21 00:35:57;;;;;;;18.38;13.73;;;20.20;99.90;;;;;;4988980;28;20042;-94
2022/07/21 00:38:23;;;;;;;21.13;14.52;;;20.20;99.90;;;;;;4987956;28;20080;-95
2022/07/21 00:40:49;;;;;;;18.45;14.07;;;20.20;99.90;;;;;;4971496;28;20065;-93
2022/07/21 00:43:14;;;;;;;19.73;14.32;;;20.40;99.90;;;;;;4978181;28;20054;-94
2022/07/21 00:45:43;;;;;;;18.23;14.82;;;20.10;99.90;;;;;;4956632;28;20035;-95
2022/07/21 00:48:08;;;;;;;18.02;14.68;;;19.90;99.90;;;;;;4983128;28;20050;-93
2022/07/21 00:50:34;;;;;;;18.80;14.60;;;20.10;99.90;;;;;;4990989;28;20484;-95
2022/07/21 00:53:00;;;;;;;20.85;14.88;;;20.00;99.90;;;;;;4990562;28;20073;-96
2022/07/21 00:55:25;;;;;;;21.25;14.75;;;20.00;99.90;;;;;;4992751;28;20054;-94
2022/07/21 00:57:52;;;;;;;18.77;14.40;;;20.00;99.90;;;;;;5000405;28;20069;-94
2022/07/21 01:00:26;;;;;;;20.55;15.57;;;20.00;99.90;;;;;;5015356;28;20030;-95
2022/07/21 01:02:52;;;;;;;19.70;14.68;;;20.00;99.90;;;;;;4985202;28;20042;-94
2022/07/21 01:05:18;;;;;;;20.50;15.50;;;19.90;99.90;;;;;;4991345;28;20121;-93
2022/07/21 01:07:50;;;;;;;19.45;16.17;;;19.90;99.90;;;;;;4981718;28;20046;-93
2022/07/21 01:10:17;;;;;;;21.00;16.02;;;19.90;99.90;;;;;;4990638;28;20042;-94
2022/07/21 01:12:43;;;;;;;21.95;16.15;;;19.90;99.90;;;;;;4988642;28;20109;-95
2022/07/21 01:15:11;;;;;;;19.52;15.43;;;19.90;99.90;;;;;;4986459;28;20192;-93
2022/07/21 01:17:37;;;;;;;21.08;16.13;;;19.90;99.90;;;;;;4977889;28;20031;-93
2022/07/21 01:20:12;;;;;;;19.55;15.27;;;19.90;99.90;;;;;;4988841;28;20046;-94
2022/07/21 01:22:39;;;;;;;20.40;15.50;;;19.90;99.90;;;;;;4990384;28;20050;-95
2022/07/21 01:25:05;;;;;;;20.08;17.02;;;19.90;99.90;;;;;;4979709;28;20151;-93
2022/07/21 01:27:31;;;;;;;19.38;16.08;;;19.90;99.90;;;;;;4974808;28;20088;-93
2022/07/21 01:29:57;;;;;;;19.92;15.65;;;19.90;99.90;;;;;;4990147;28;20042;-93
2022/07/21 01:32:23;;;;;;;19.52;14.75;;;20.00;99.90;;;;;;4990979;28;20042;-93
2022/07/21 01:34:50;;;;;;;18.35;15.23;;;19.90;99.90;;;;;;4989403;28;20053;-93
2022/07/21 01:37:23;;;;;;;20.73;15.43;;;19.90;99.90;;;;;;4989588;28;20331;-94
2022/07/21 01:42:36;;;;;;;19.63;16.52;;;19.90;99.90;;;;;;4976325;28;20051;-92
2022/07/21 01:45:04;;;;;;;20.75;16.23;;;19.80;99.90;;;;;;4988929;28;20576;-93
2022/07/21 01:47:30;;;;;;;21.50;16.40;;;19.80;99.90;;;;;;4990035;28;20046;-93
2022/07/21 01:49:55;;;;;;;23.33;17.50;;;19.80;99.90;;;;;;5228489;23;20031;-96
2022/07/21 01:52:21;;;;;;;27.50;19.40;;;19.80;99.90;;;;;;4976099;28;20142;-93
2022/07/21 01:54:47;;;;;;;24.83;17.83;;;19.80;99.90;;;;;;4961655;28;20453;-95
2022/07/21 01:57:12;;;;;;;24.65;18.20;;;19.80;99.90;;;;;;4941936;29;20051;-89
2022/07/21 01:59:38;;;;;;;22.10;17.65;;;19.80;99.90;;;;;;4955407;28;20110;-91
2022/07/21 02:02:04;;;;;;;20.85;16.52;;;19.70;99.90;;;;;;4957453;28;20370;-96
2022/07/21 02:04:29;;;;;;;20.50;17.02;;;19.80;99.90;;;;;;4949555;28;20039;-94
2022/07/21 02:06:55;;;;;;;22.25;16.65;;;19.70;99.90;;;;;;4957218;28;20038;-94
2022/07/21 02:09:21;;;;;;;22.38;17.10;;;19.70;99.90;;;;;;5049786;23;20057;-94
2022/07/21 02:11:46;;;;;;;19.13;17.00;;;19.70;99.90;;;;;;4973803;28;20046;-95
2022/07/21 02:14:12;;;;;;;22.13;17.73;;;19.70;99.90;;;;;;4974866;28;20079;-95
2022/07/21 02:16:38;;;;;;;19.42;15.82;;;19.70;99.90;;;;;;4974950;28;20038;-94
2022/07/21 02:19:04;;;;;;;18.27;15.75;;;19.70;99.90;;;;;;4973244;28;20538;-93
2022/07/21 02:21:29;;;;;;;18.10;16.20;;;19.60;99.90;;;;;;4974596;28;20051;-92
2022/07/21 02:23:57;;;;;;;21.45;17.67;;;19.60;99.90;;;;;;4974826;28;20412;-93
2022/07/21 02:26:23;;;;;;;19.90;16.98;;;19.60;99.90;;;;;;4975340;28;20335;-94
2022/07/21 02:28:49;;;;;;;21.15;17.20;;;19.60;99.90;;;;;;4973147;28;20114;-93
2022/07/21 02:31:15;;;;;;;19.73;17.63;;;19.50;99.90;;;;;;4975496;28;20042;-93
2022/07/21 02:33:40;;;;;;;21.45;17.38;;;19.70;99.90;;;;;;4974799;28;20035;-93
2022/07/21 02:36:07;;;;;;;23.33;17.23;;;19.60;99.90;;;;;;4973477;28;20074;-93
2022/07/21 02:38:32;;;;;;;24.42;18.35;;;19.60;99.90;;;;;;4974664;28;20039;-92
2022/07/21 02:40:58;;;;;;;24.58;18.63;;;19.60;99.90;;;;;;4971870;28;20043;-92
2022/07/21 02:43:24;;;;;;;21.38;17.75;;;19.50;99.90;;;;;;4956941;28;20050;-91
2022/07/21 02:45:50;;;;;;;22.05;17.52;;;19.50;99.90;;;;;;4972350;28;20051;-90
2022/07/21 02:48:15;;;;;;;22.00;18.90;;;19.60;99.90;;;;;;4971176;28;20038;-91
2022/07/21 02:50:43;;;;;;;21.67;18.02;;;19.50;99.90;;;;;;4973483;28;20046;-86
2022/07/21 02:53:14;;;;;;;23.05;19.25;;;19.50;99.90;;;;;;4971712;28;20146;-87
2022/07/21 02:55:39;;;;;;;;;;;19.60;99.90;;;;;;4971540;28;20047;-85
2022/07/21 02:58:13;;;;;;;23.42;19.90;;;19.50;99.90;;;;;;4971093;28;20363;-86
2022/07/21 03:00:44;;;;;;;22.30;19.83;;;19.40;99.90;;;;;;4971430;28;20129;-87
2022/07/21 03:03:10;;;;;;;27.85;20.63;;;19.40;99.90;;;;;;4972449;28;20107;-86
2022/07/21 03:05:37;;;;;;;23.60;19.67;;;19.50;99.90;;;;;;4970970;28;20069;-87
2022/07/21 03:08:04;;;;;;;25.83;20.42;;;19.40;99.90;;;;;;4969736;28;20105;-86
2022/07/21 03:10:30;;;;;;;39.17;21.85;;;19.40;99.90;;;;;;4970521;28;20090;-86
2022/07/21 03:12:55;;;;;;;34.45;21.52;;;19.40;99.90;;;;;;4969954;28;20073;-86
2022/07/21 03:15:21;;;;;;;28.23;21.63;;;19.40;99.90;;;;;;4971525;28;20082;-87
2022/07/21 03:17:47;;;;;;;24.60;21.40;;;19.40;99.90;;;;;;4970252;28;20046;-87
2022/07/21 03:20:15;;;;;;;28.17;22.52;;;19.30;99.90;;;;;;4971270;28;20101;-86
2022/07/21 03:22:43;;;;;;;26.65;22.00;;;19.30;99.90;;;;;;4970847;28;20427;-87
2022/07/21 03:25:09;;;;;;;30.38;24.38;;;19.40;99.90;;;;;;4971498;28;20116;-87
2022/07/21 03:27:36;;;;;;;30.15;22.90;;;19.40;99.90;;;;;;4970350;28;20047;-87
2022/07/21 03:30:05;;;;;;;31.52;25.42;;;19.40;99.90;;;;;;4954480;28;20118;-86
2022/07/21 03:32:33;;;;;;;27.67;24.13;;;19.40;99.90;;;;;;4972500;28;20118;-86
2022/07/21 03:34:59;;;;;;;26.35;23.35;;;19.40;99.90;;;;;;4969110;28;20464;-87
2022/07/21 03:37:25;;;;;;;27.95;24.52;;;19.40;99.90;;;;;;4971654;28;20042;-87
2022/07/21 03:39:51;;;;;;;27.60;24.45;;;19.40;99.90;;;;;;4970465;28;20174;-86
2022/07/21 03:42:16;;;;;;;27.77;24.52;;;19.40;99.90;;;;;;4972083;28;20045;-87
2022/07/21 03:44:42;;;;;;;30.33;24.63;;;19.40;99.90;;;;;;4970731;28;20255;-87
2022/07/21 03:47:08;;;;;;;27.40;24.45;;;19.40;99.90;;;;;;4971249;28;20173;-87
2022/07/21 03:49:33;;;;;;;28.17;25.17;;;19.40;99.90;;;;;;4954414;28;20396;-87
2022/07/21 03:51:59;;;;;;;30.70;26.83;;;19.40;99.90;;;;;;4935263;29;20199;-86
2022/07/21 03:54:25;;;;;;;30.00;26.48;;;19.50;99.90;;;;;;4952847;29;20396;-87
2022/07/21 03:56:51;;;;;;;29.83;26.55;;;19.50;99.90;;;;;;4947808;28;20455;-87
2022/07/21 03:59:17;;;;;;;30.73;26.65;;;19.50;99.90;;;;;;4971809;28;20038;-87
2022/07/21 04:01:43;;;;;;;31.27;27.95;;;19.50;99.90;;;;;;4971165;28;20047;-87
2022/07/21 04:04:08;;;;;;;32.38;28.35;;;19.50;99.90;;;;;;4966638;28;20046;-86
2022/07/21 04:06:34;;;;;;;32.33;28.92;;;19.50;99.90;;;;;;4972041;28;20043;-86
2022/07/21 04:09:00;;;;;;;33.78;30.20;;;19.60;99.90;;;;;;4969787;28;20078;-86
2022/07/21 04:11:25;;;;;;;36.40;32.38;;;19.50;99.90;;;;;;4970083;28;20046;-87
2022/07/21 04:13:51;;;;;;;36.00;32.17;;;19.50;99.90;;;;;;4969619;28;20051;-87
2022/07/21 04:16:16;;;;;;;33.90;30.40;;;19.60;99.90;;;;;;4971380;28;20443;-87
2022/07/21 04:18:42;;;;;;;38.85;34.40;;;19.60;99.90;;;;;;4968971;28;20058;-86
2022/07/21 04:21:08;;;;;;;38.20;34.13;;;19.60;99.90;;;;;;4969270;28;20145;-87
2022/07/21 04:23:33;;;;;;;40.53;36.25;;;19.60;99.90;;;;;;4954229;28;20547;-87
2022/07/21 04:25:59;;;;;;;39.10;35.00;;;19.50;99.90;;;;;;4968650;28;20049;-87
2022/07/21 04:28:24;;;;;;;40.13;35.97;;;19.60;99.90;;;;;;4970026;28;20039;-88
2022/07/21 04:30:50;;;;;;;40.28;36.00;;;19.70;99.90;;;;;;4954635;28;20153;-89
2022/07/21 04:33:16;;;;;;;42.35;35.60;;;19.60;99.90;;;;;;4971264;28;20055;-89
2022/07/21 04:35:41;;;;;;;39.63;35.42;;;19.60;99.90;;;;;;4975048;28;20097;-89
2022/07/21 04:38:10;;;;;;;38.72;34.55;;;19.60;99.90;;;;;;4973335;28;20038;-89
2022/07/21 04:40:36;;;;;;;37.78;33.88;;;19.60;99.90;;;;;;4971523;28;20388;-89
2022/07/21 04:43:02;;;;;;;38.33;34.22;;;19.60;99.90;;;;;;4972658;28;20043;-89
2022/07/21 04:45:28;;;;;;;38.08;34.13;;;19.60;99.90;;;;;;4970643;28;20035;-89
2022/07/21 04:47:55;;;;;;;36.80;32.92;;;19.50;99.90;;;;;;4971783;28;20515;-90
2022/07/21 04:50:27;;;;;;;37.50;33.30;;;19.50;99.90;;;;;;4968942;28;20046;-90
2022/07/21 04:52:54;;;;;;;37.97;34.13;;;19.50;99.90;;;;;;4969046;28;20126;-89
2022/07/21 04:55:20;;;;;;;38.05;34.17;;;19.60;99.90;;;;;;4970423;28;20061;-88
2022/07/21 04:57:48;;;;;;;37.10;33.30;;;19.50;99.90;;;;;;4969758;28;20042;-89
2022/07/21 05:00:16;;;;;;;39.47;35.42;;;19.60;99.90;;;;;;4950348;28;20054;-89
2022/07/21 05:02:43;;;;;;;39.83;35.53;;;19.50;99.90;;;;;;4976620;28;20051;-88
2022/07/21 05:05:09;;;;;;;38.97;35.00;;;19.50;99.90;;;;;;4967154;28;20133;-96
2022/07/21 05:07:34;;;;;;;39.47;35.42;;;19.50;99.90;;;;;;4970091;28;20102;-92
2022/07/21 05:10:04;;;;;;;39.92;35.70;;;19.50;99.90;;;;;;4965757;28;20129;-93
2022/07/21 05:12:30;;;;;;;41.17;36.85;;;19.50;99.90;;;;;;4967792;28;20038;-93
2022/07/21 05:14:55;;;;;;;39.17;35.13;;;19.50;99.90;;;;;;4952893;28;20034;-93
2022/07/21 05:17:21;;;;;;;39.22;35.17;;;19.60;99.90;;;;;;4954820;28;20129;-93
2022/07/21 05:19:49;;;;;;;39.65;35.45;;;19.50;99.90;;;;;;4970418;28;20042;-93
2022/07/21 05:22:18;;;;;;;39.53;35.58;;;19.50;99.90;;;;;;4971942;28;20046;-93
2022/07/21 05:24:45;;;;;;;39.10;35.05;;;19.60;99.90;;;;;;4969798;28;20043;-93
2022/07/21 05:27:11;;;;;;;40.70;36.40;;;19.50;99.90;;;;;;4971248;28;20058;-93
2022/07/21 05:29:36;;;;;;;38.25;34.50;;;19.60;99.90;;;;;;4973100;28;20488;-93
2022/07/21 05:32:02;;;;;;;39.13;35.20;;;19.60;99.90;;;;;;4953827;28;20057;-92
2022/07/21 05:34:28;;;;;;;39.63;35.67;;;19.60;99.90;;;;;;4973918;28;20750;-93
2022/07/21 05:36:54;;;;;;;39.40;35.35;;;19.70;99.90;;;;;;4971709;28;20071;-91
2022/07/21 05:39:20;;;;;;;42.10;37.60;;;19.70;99.90;;;;;;4972643;28;20049;-93
2022/07/21 05:41:45;;;;;;;42.03;37.70;;;19.70;99.90;;;;;;4972937;28;20053;-93
2022/07/21 05:44:11;;;;;;;40.17;35.97;;;19.70;99.90;;;;;;4976547;28;20455;-92
2022/07/21 05:46:37;;;;;;;39.65;35.70;;;19.70;99.90;;;;;;4975611;28;20082;-91
2022/07/21 05:49:03;;;;;;;40.70;36.50;;;19.80;99.90;;;;;;4958252;28;20483;-91
2022/07/21 05:51:30;;;;;;;39.88;36.08;;;19.80;99.90;;;;;;4960140;28;20089;-91
2022/07/21 05:53:56;;;;;;;40.72;36.83;;;19.90;99.90;;;;;;4973691;28;20093;-91
2022/07/21 05:56:22;;;;;;;38.97;35.17;;;19.90;99.90;;;;;;4971537;28;20043;-92
2022/07/21 05:58:47;;;;;;;38.38;34.50;;;20.00;99.90;;;;;;4973967;28;20079;-89
2022/07/21 06:01:13;;;;;;;37.17;33.65;;;20.10;99.90;;;;;;4971101;28;20381;-91
2022/07/21 06:03:44;;;;;;;36.97;33.38;;;20.20;99.90;;;;;;4971611;28;20105;-89
2022/07/21 06:06:12;;;;;;;37.00;33.47;;;20.30;99.90;;;;;;4974110;28;20198;-91
2022/07/21 06:08:40;;;;;;;37.70;34.08;;;20.40;99.90;;;;;;4970811;28;20043;-90
2022/07/21 06:11:07;;;;;;;38.50;34.70;;;20.40;99.90;;;;;;4968426;28;20058;-91
2022/07/21 06:13:32;;;;;;;36.28;32.78;;;20.40;99.90;;;;;;4974339;28;20039;-89
2022/07/21 06:15:58;;;;;;;37.70;33.90;;;20.30;99.90;;;;;;4970540;28;20795;-89
2022/07/21 06:18:24;;;;;;;36.40;32.90;;;20.20;99.90;;;;;;4971961;28;20559;-91
2022/07/21 06:20:49;;;;;;;36.65;33.05;;;20.20;99.90;;;;;;4971309;28;20046;-92
2022/07/21 06:23:15;;;;;;;35.72;32.13;;;20.20;99.90;;;;;;4972970;28;20492;-92
2022/07/21 06:25:41;;;;;;;34.33;30.98;;;20.10;99.90;;;;;;4957164;28;20395;-93
2022/07/21 06:28:07;;;;;;;32.80;29.67;;;20.10;99.90;;;;;;4956538;28;20043;-93
2022/07/21 06:30:32;;;;;;;34.85;31.40;;;20.00;99.90;;;;;;4973506;28;20094;-91
2022/07/21 06:32:58;;;;;;;31.23;28.13;;;19.90;99.90;;;;;;4972763;28;20134;-93
2022/07/21 06:35:24;;;;;;;30.83;27.98;;;19.90;99.90;;;;;;4962966;28;20051;-92
2022/07/21 06:37:50;;;;;;;31.63;28.42;;;19.90;99.90;;;;;;4969911;28;20051;-91
2022/07/21 06:40:15;;;;;;;31.83;28.63;;;19.80;99.90;;;;;;4974901;28;20045;-93
2022/07/21 06:42:42;;;;;;;32.88;29.67;;;19.70;99.90;;;;;;4974103;28;20043;-93
2022/07/21 06:45:07;;;;;;;32.90;29.60;;;19.70;99.90;;;;;;4978553;28;20047;-92
2022/07/21 06:47:33;;;;;;;34.67;31.20;;;19.70;99.90;;;;;;4980275;28;20117;-93
2022/07/21 06:50:02;;;;;;;34.03;30.65;;;19.70;99.90;;;;;;4976992;28;20046;-93
2022/07/21 06:52:29;;;;;;;34.38;30.98;;;19.70;99.90;;;;;;4980404;28;20050;-92
2022/07/21 06:54:55;;;;;;;34.42;30.95;;;19.70;99.90;;;;;;4988790;28;20046;-92
2022/07/21 06:57:21;;;;;;;35.13;31.73;;;19.70;99.90;;;;;;4969940;28;20046;-93
2022/07/21 06:59:46;;;;;;;36.50;33.00;;;19.70;99.90;;;;;;4960151;28;20077;-94
2022/07/21 07:02:12;;;;;;;37.15;33.33;;;19.70;99.90;;;;;;4974079;28;20050;-93
2022/07/21 07:04:38;;;;;;;34.42;30.90;;;19.70;99.90;;;;;;4957902;28;20047;-93
2022/07/21 07:07:03;;;;;;;36.70;33.03;;;19.80;99.90;;;;;;4972630;28;20043;-92
2022/07/21 07:09:29;;;;;;;36.38;32.75;;;19.80;99.90;;;;;;4974400;28;20059;-93
2022/07/21 07:12:03;;;;;;;36.53;32.72;;;19.70;99.90;;;;;;4973552;28;20416;-92
2022/07/21 07:14:32;;;;;;;37.03;33.35;;;19.80;99.90;;;;;;4973266;28;20126;-94
2022/07/21 07:16:59;;;;;;;38.60;34.65;;;19.90;99.90;;;;;;4971434;28;20046;-92
2022/07/21 07:19:26;;;;;;;37.60;33.88;;;19.90;99.90;;;;;;4972717;28;20051;-93
2022/07/21 07:21:52;;;;;;;38.92;34.95;;;20.00;99.90;;;;;;4972235;28;20046;-91
2022/07/21 07:24:17;;;;;;;39.72;35.67;;;20.00;99.90;;;;;;4973845;28;20043;-90
2022/07/21 07:26:43;;;;;;;39.30;35.30;;;20.00;99.90;;;;;;4973464;28;20043;-93
2022/07/21 07:29:09;;;;;;;41.10;36.90;;;20.10;99.90;;;;;;4973566;28;20065;-94
2022/07/21 07:31:35;;;;;;;41.90;37.70;;;20.20;99.90;;;;;;4955485;28;20122;-94
2022/07/21 07:34:01;;;;;;;40.50;36.20;;;20.20;99.90;;;;;;4970804;28;20125;-92
2022/07/21 07:36:27;;;;;;;41.63;37.28;;;20.30;99.90;;;;;;4970902;28;20042;-94
2022/07/21 07:38:54;;;;;;;43.47;38.88;;;20.40;99.90;;;;;;4972728;28;20113;-94
2022/07/21 07:41:21;;;;;;;42.05;37.72;;;20.40;99.90;;;;;;4972039;28;20053;-94
2022/07/21 07:43:51;;;;;;;42.95;38.38;;;20.40;99.90;;;;;;4957165;28;20094;-93
2022/07/21 07:46:20;;;;;;;43.78;39.15;;;20.50;99.90;;;;;;4973610;28;20046;-94
2022/07/21 07:48:47;;;;;;;42.10;37.60;;;20.60;99.90;;;;;;4971610;28;20108;-94
2022/07/21 07:51:14;;;;;;;46.10;40.70;;;20.60;99.90;;;;;;4954605;28;20071;-93
2022/07/21 07:53:40;;;;;;;42.95;38.30;;;20.50;99.90;;;;;;4968695;28;20071;-95
2022/07/21 07:56:07;;;;;;;44.28;39.58;;;20.60;99.90;;;;;;4954626;28;20042;-95
2022/07/21 07:58:33;;;;;;;43.25;38.60;;;20.70;99.90;;;;;;4968771;28;20031;-93
2022/07/21 08:00:58;;;;;;;41.92;37.55;;;20.80;99.90;;;;;;4969341;28;20488;-91
2022/07/21 08:03:25;;;;;;;41.90;37.55;;;21.00;99.90;;;;;;4974363;28;20047;-91
2022/07/21 08:05:52;;;;;;;42.05;37.63;;;21.20;99.90;;;;;;4971159;28;20038;-88
2022/07/21 08:08:22;;;;;;;40.45;36.25;;;21.40;99.90;;;;;;4953033;28;20055;-94
2022/07/21 08:11:13;;;;;;;40.80;36.53;;;21.50;99.90;;;;;;4954353;28;20078;-94
2022/07/21 08:13:39;;;;;;;;;;;21.70;99.90;;;;;;4954736;28;20090;-92
2022/07/21 08:16:05;;;;;;;38.40;34.22;;;21.70;99.90;;;;;;4954037;28;20377;-92
2022/07/21 08:18:30;;;;;;;35.63;32.13;;;21.90;99.90;;;;;;4954249;28;20104;-90
2022/07/21 08:20:56;;;;;;;34.53;30.90;;;22.10;99.90;;;;;;4970358;28;20435;-91
2022/07/21 08:23:21;;;;;;;33.72;30.33;;;22.10;99.90;;;;;;4954283;28;20069;-91
2022/07/21 08:25:51;;;;;;;34.00;30.55;;;22.20;99.90;;;;;;4966526;28;20066;-91
2022/07/21 08:28:17;;;;;;;30.05;26.98;;;22.40;99.90;;;;;;4936590;28;20074;-91
2022/07/21 08:30:43;;;;;;;31.58;28.38;;;22.50;99.90;;;;;;4953927;28;20078;-94
2022/07/21 08:33:08;;;;;;;29.42;26.50;;;22.60;99.90;;;;;;4951805;28;20047;-89
2022/07/21 08:35:34;;;;;;;28.65;25.90;;;22.60;99.90;;;;;;4970947;28;20050;-88
2022/07/21 08:38:06;;;;;;;28.25;25.55;;;22.70;99.90;;;;;;4952494;28;20129;-89
2022/07/21 08:40:38;;;;;;;28.63;25.73;;;22.70;99.90;;;;;;4969498;28;20057;-90
2022/07/21 08:43:06;;;;;;;28.83;25.90;;;22.60;99.90;;;;;;4968280;28;20098;-88
2022/07/21 08:45:32;;;;;;;31.13;28.13;;;22.60;99.90;;;;;;4970609;28;20109;-88
2022/07/21 08:47:59;;;;;;;31.27;28.17;;;22.70;99.90;;;;;;4951702;28;20041;-88
2022/07/21 08:50:27;;;;;;;31.58;28.48;;;22.70;99.90;;;;;;4969878;28;20487;-88
2022/07/21 08:52:53;;;;;;;32.28;29.08;;;22.60;99.90;;;;;;4968089;28;20053;-89
2022/07/21 08:55:22;;;;;;;32.08;28.83;;;22.60;99.90;;;;;;4968362;28;20121;-90
2022/07/21 08:57:47;;;;;;;29.88;26.98;;;22.60;99.90;;;;;;4969591;28;20384;-90
2022/07/21 09:00:14;;;;;;;29.48;26.58;;;22.70;99.90;;;;;;4971013;28;20053;-88
2022/07/21 09:02:39;;;;;;;28.17;25.30;;;22.80;99.90;;;;;;4967992;28;20046;-90
2022/07/21 09:05:08;;;;;;;27.73;24.85;;;22.80;99.90;;;;;;4966036;28;20043;-90
2022/07/21 09:08:06;;;;;;;28.60;25.60;;;22.90;99.90;;;;;;4968410;28;20043;-89
2022/07/21 09:10:33;;;;;;;28.67;25.85;;;23.00;99.90;;;;;;4931920;28;20054;-89
2022/07/21 09:13:01;;;;;;;26.48;23.88;;;23.10;99.90;;;;;;4964303;28;20140;-92
2022/07/21 09:15:28;;;;;;;27.33;24.65;;;23.10;99.90;;;;;;4967006;28;20472;-92
2022/07/21 09:18:09;;;;;;;25.58;22.88;;;23.00;99.90;;;;;;4965649;28;20042;-93
2022/07/21 09:20:35;;;;;;;26.73;24.08;;;22.90;99.90;;;;;;4966946;28;20050;-91
2022/07/21 09:23:10;;;;;;;25.95;23.25;;;22.90;99.90;;;;;;4964644;28;20061;-91
2022/07/21 09:25:41;;;;;;;28.38;25.33;;;22.80;99.90;;;;;;4960335;28;20043;-90
2022/07/21 09:28:28;;;;;;;26.73;24.08;;;22.80;99.90;;;;;;4951942;28;20043;-89
2022/07/21 09:31:03;;;;;;;26.48;23.83;;;22.80;99.90;;;;;;4950032;29;20046;-89
2022/07/21 09:33:34;;;;;;;22.10;19.88;;;22.60;99.90;;;;;;4950460;29;20051;-93
2022/07/21 09:36:08;;;;;;;23.75;21.35;;;22.60;99.90;;;;;;4967441;28;20492;-89
2022/07/21 09:39:04;;;;;;;26.60;23.80;;;22.70;99.90;;;;;;4968501;28;20054;-88
2022/07/21 09:41:30;;;;;;;27.63;24.90;;;22.80;99.90;;;;;;4948512;28;20138;-88
2022/07/21 09:43:57;;;;;;;27.08;24.30;;;22.80;99.90;;;;;;4952794;28;20178;-89
2022/07/21 09:46:25;;;;;;;26.40;23.80;;;22.80;99.90;;;;;;4953143;28;20055;-87
2022/07/21 09:48:53;;;;;;;26.10;23.48;;;22.70;99.90;;;;;;4965747;28;20435;-88
2022/07/21 09:51:32;;;;;;;27.35;24.60;;;22.60;99.90;;;;;;4967074;28;20133;-89
2022/07/21 09:54:02;;;;;;;26.17;23.48;;;22.50;99.90;;;;;;4960328;28;20045;-89
2022/07/21 09:56:33;;;;;;;27.08;24.38;;;22.30;99.90;;;;;;4965960;28;20392;-88
2022/07/21 09:59:01;;;;;;;27.35;24.55;;;22.30;99.90;;;;;;4966438;28;20050;-90
2022/07/21 10:01:28;;;;;;;34.38;30.88;;;22.30;99.90;;;;;;4966098;28;20050;-90
2022/07/21 10:03:55;;;;;;;35.10;31.48;;;22.20;99.90;;;;;;4966265;28;20046;-91
2022/07/21 10:06:31;;;;;;;33.90;30.42;;;22.10;99.90;;;;;;4969430;28;20078;-91
2022/07/21 10:08:58;;;;;;;34.58;30.98;;;22.10;99.90;;;;;;4945627;28;20590;-91
2022/07/21 10:11:25;;;;;;;32.72;29.33;;;22.00;99.90;;;;;;4968596;28;20117;-90
2022/07/21 10:13:52;;;;;;;34.35;30.65;;;21.80;99.90;;;;;;4966550;28;20399;-93
2022/07/21 10:16:18;;;;;;;35.03;31.40;;;21.70;99.90;;;;;;4954034;28;20039;-91
2022/07/21 10:19:05;;;;;;;35.35;31.50;;;21.60;99.90;;;;;;4969928;28;20046;-91
2022/07/21 10:22:01;;;;;;;37.00;32.08;;;21.60;99.90;;;;;;4975002;28;20400;-93
2022/07/21 10:24:31;;;;;;;37.60;33.80;;;21.40;99.90;;;;;;4972426;28;20051;-93
2022/07/21 10:27:02;;;;;;;37.53;33.58;;;21.40;99.90;;;;;;4970622;28;20175;-93
2022/07/21 10:30:02;;;;;;;36.15;32.42;;;21.30;99.90;;;;;;4972686;28;20385;-92
2022/07/21 10:32:38;;;;;;;35.00;31.40;;;21.30;99.90;;;;;;4942213;28;20089;-93
2022/07/21 10:35:22;;;;;;;38.88;34.80;;;21.30;99.90;;;;;;4957240;28;20286;-94
2022/07/21 10:37:51;;;;;;;37.58;33.60;;;21.30;99.90;;;;;;4972098;28;20507;-92
2022/07/21 10:40:20;;;;;;;36.58;32.65;;;21.30;99.90;;;;;;4957288;28;20046;-94
2022/07/21 10:43:05;;;;;;;36.85;32.97;;;21.40;99.90;;;;;;4956421;28;20046;-94
2022/07/21 10:45:33;;;;;;;37.85;33.95;;;21.40;99.90;;;;;;4974106;28;20408;-94
2022/07/21 10:48:00;;;;;;;37.28;33.33;;;21.50;99.90;;;;;;4976288;28;20058;-95
2022/07/21 10:50:41;;;;;;;37.65;33.60;;;21.60;99.90;;;;;;4972650;28;20058;-94
2022/07/21 10:53:18;;;;;;;37.38;33.38;;;21.70;99.90;;;;;;4976034;28;20151;-93
2022/07/21 10:55:52;;;;;;;38.90;34.90;;;21.90;99.90;;;;;;4972271;28;20166;-94
2022/07/21 10:58:24;;;;;;;37.55;33.55;;;21.90;99.90;;;;;;4973656;28;20058;-94
2022/07/21 11:01:01;;;;;;;38.05;33.97;;;22.10;99.90;;;;;;4976580;28;20411;-92
2022/07/21 11:03:29;;;;;;;39.47;35.28;;;22.20;99.90;;;;;;4973082;28;20070;-94
2022/07/21 11:06:07;;;;;;;36.60;32.80;;;22.40;99.90;;;;;;4968529;28;20043;-90
2022/07/21 11:08:34;;;;;;;38.13;34.22;;;22.40;99.90;;;;;;4965265;28;20082;-90
2022/07/21 11:11:16;;;;;;;35.03;31.33;;;22.50;99.90;;;;;;4953754;28;20047;-90
2022/07/21 11:14:07;;;;;;;31.17;27.88;;;22.50;99.90;;;;;;4971735;28;20408;-90
2022/07/21 11:16:46;;;;;;;32.63;29.23;;;22.40;99.90;;;;;;4972122;28;20051;-90
2022/07/21 11:19:33;;;;;;;31.27;28.08;;;22.30;99.90;;;;;;4955380;28;20046;-87
2022/07/21 11:22:05;;;;;;;25.70;22.75;;;22.20;99.90;;;;;;4970624;28;20046;-89
2022/07/21 11:24:31;;;;;;;23.88;21.38;;;22.00;99.90;;;;;;4971036;28;20387;-89
2022/07/21 11:27:19;;;;;;;24.63;21.90;;;21.80;99.90;;;;;;4972104;28;20034;-96
2022/07/21 11:29:46;;;;;;;24.48;21.02;;;21.60;99.90;;;;;;4954730;28;20035;-88
2022/07/21 11:32:13;;;;;;;21.65;18.88;;;21.30;99.90;;;;;;4954663;28;20075;-90
2022/07/21 11:34:40;;;;;;;21.35;17.85;;;21.10;99.90;;;;;;4972713;28;20042;-89
2022/07/21 11:37:06;;;;;;;22.58;19.10;;;20.90;99.90;;;;;;4971685;28;20054;-93
2022/07/21 11:39:32;;;;;;;23.40;20.48;;;20.80;99.90;;;;;;4974108;28;20043;-94
2022/07/21 11:42:06;;;;;;;25.88;22.63;;;20.60;99.90;;;;;;4956043;28;20043;-92
2022/07/21 11:44:33;;;;;;;28.33;25.00;;;20.50;99.90;;;;;;4973111;28;20403;-94
2022/07/21 11:47:01;;;;;;;31.65;28.08;;;20.50;99.90;;;;;;4968032;28;20050;-90
2022/07/21 11:49:26;;;;;;;34.63;30.92;;;20.50;99.90;;;;;;4970434;28;20042;-89
2022/07/21 11:51:58;;;;;;;34.83;31.33;;;20.50;99.90;;;;;;4969298;28;20093;-90
2022/07/21 11:54:31;;;;;;;37.78;33.72;;;20.50;99.90;;;;;;4972216;28;20058;-89
2022/07/21 11:56:59;;;;;;;37.58;33.47;;;20.60;99.90;;;;;;4970745;28;20126;-90
2022/07/21 11:59:26;;;;;;;38.22;34.25;;;20.60;99.90;;;;;;4966731;28;20046;-90
2022/07/21 12:02:19;;;;;;;40.65;36.33;;;20.70;99.90;;;;;;4968834;28;20055;-91
2022/07/21 12:04:49;;;;;;;39.53;35.42;;;20.80;99.90;;;;;;4965569;28;20069;-91
2022/07/21 12:07:31;;;;;;;39.65;35.67;;;20.80;99.90;;;;;;4946882;28;20057;-90
2022/07/21 12:09:58;;;;;;;41.10;36.75;;;21.00;99.90;;;;;;4971054;28;20054;-91
2022/07/21 12:12:34;;;;;;;41.58;37.22;;;21.00;99.90;;;;;;4971390;28;20043;-91
2022/07/21 12:15:33;;;;;;;40.70;36.45;;;21.10;99.90;;;;;;4962843;28;20043;-90
2022/07/21 12:18:20;;;;;;;40.42;36.28;;;21.30;99.90;;;;;;4951673;28;20050;-93
2022/07/21 12:20:46;;;;;;;36.33;32.53;;;21.40;99.90;;;;;;4970758;28;20043;-93
2022/07/21 12:23:21;;;;;;;33.85;30.27;;;21.40;99.90;;;;;;4968763;28;20078;-94
2022/07/21 12:25:48;;;;;;;30.75;27.60;;;21.50;99.90;;;;;;4971512;28;20191;-93
2022/07/21 12:28:13;;;;;;;30.08;26.95;;;21.50;99.90;;;;;;4966916;28;20049;-91
2022/07/21 12:30:50;;;;;;;29.92;26.63;;;21.50;99.90;;;;;;4969874;28;20042;-92
2022/07/21 12:33:20;;;;;;;23.67;21.08;;;21.50;99.90;;;;;;4971691;28;20073;-93
2022/07/21 12:35:59;;;;;;;18.67;16.67;;;21.40;99.90;;;;;;4971491;28;20800;-94
2022/07/21 12:38:35;;;;;;;18.52;16.58;;;21.40;99.90;;;;;;4970774;28;20113;-93